Terminal Aerodrome Forecast
Issued by NWS Pueblo, CO

Home | Current Version | Previous Version | Text Only | Print | Product List | Glossary On
Versions: 1 2 3 4 5 6 7 8 9 10 11 12 13 14 15 16
000
FTUS45 KPUB 231736
TAFALS
TAF
KALS 231736Z 2318/2418 21025G35KT P6SM SCT150
     FM232200 23025G35KT P6SM VCSH BKN100
     FM240200 24014KT P6SM VCSH BKN030=

USA.gov is the U.S. government's official web portal to all federal, state and local government web resources and services.